M I D A S
Marine Information and Data Acquisition System
Tripno 1005 of the Zeeleeuw from 2005-09-08 06:19:00 to 2005-09-08 12:46:35
Back to CruiseResearch ActivitiesStationsMapUnderway DataData graphs

EquipmentUnitsComment
TimeDGPSUTC
LatitudeDGPSDM.mWGS84
LongitudeDGPSDM.mWGS84
HeadingGyrodeg 
SOGDGPSknotsSpeed over ground
COGDGPSdegCourse over ground
DepthEcho soundermeters200 kHz
Missing or incorrect values are displayed as -999
Navigation data collected by the RV Zeeleeuw from 2005-09-08 06:14:50 to 2005-09-08 13:52:24
Time Latitude Longitude Heading SOG COG Depth
2005-09-08 06:15:54 51°13.588 2°56.1 142 1.9 138 9.1
2005-09-08 06:16:56 51°13.56 2°56.159 122.6 2.7 122 10.3
2005-09-08 06:17:55 51°13.534 2°56.189 172 0.7 354 10.4
2005-09-08 06:18:56 51°13.534 2°56.184 205.9 1.3 206 -999
2005-09-08 06:19:56 51°13.548 2°56.201 221.2 1.6 34 -999
2005-09-08 06:20:55 51°13.546 2°56.153 278.1 3.8 280 10.2
2005-09-08 06:21:56 51°13.605 2°56.009 308.4 7.9 304 9.8
2005-09-08 06:22:55 51°13.68 2°55.832 309.7 8 306 9.1
2005-09-08 06:23:55 51°13.774 2°55.683 326.7 7.9 324 9.5
2005-09-08 06:24:55 51°13.897 2°55.579 339.3 8.8 335 10.2
2005-09-08 06:25:55 51°14.034 2°55.48 341.6 9 336 10.8
2005-09-08 06:26:55 51°14.168 2°55.376 334 9.3 327 11
2005-09-08 06:27:55 51°14.278 2°55.194 312.5 9.9 308 10.5
2005-09-08 06:28:54 51°14.381 2°54.979 315 10.9 309 10.2
2005-09-08 06:29:55 51°14.542 2°54.772 334.7 12.9 326 10.1
2005-09-08 06:30:55 51°14.731 2°54.603 341.9 13.1 332 9.7
2005-09-08 06:31:56 51°14.927 2°54.438 341 13.1 333 9
2005-09-08 06:32:55 51°15.117 2°54.271 338.8 13.4 332 8.8
2005-09-08 06:33:55 51°15.315 2°54.099 335.8 13.6 328 9.4
2005-09-08 06:34:55 51°15.51 2°53.919 337.8 13.5 329 10.2
2005-09-08 06:35:55 51°15.704 2°53.745 339.6 13.4 332 11
2005-09-08 06:36:56 51°15.901 2°53.573 338.7 13.4 331 11.3
2005-09-08 06:37:55 51°16.097 2°53.407 339.4 13.5 332 11.9
2005-09-08 06:38:55 51°16.297 2°53.238 339 13.7 333 12.1
2005-09-08 06:39:55 51°16.5 2°53.072 339.5 13.7 333 11.9
2005-09-08 06:40:55 51°16.7 2°52.902 339.4 13.6 332 11.1
2005-09-08 06:41:55 51°16.899 2°52.738 340.4 13.5 333 9.4
2005-09-08 06:42:55 51°17.102 2°52.576 341.6 13.5 336 9.6
2005-09-08 06:43:56 51°17.314 2°52.441 343.7 13.6 338 10.2
2005-09-08 06:44:55 51°17.519 2°52.301 344.7 13.5 337 10.4
2005-09-08 06:45:55 51°17.731 2°52.184 350.7 13.4 343 10.5
2005-09-08 06:46:55 51°17.944 2°52.077 350.2 13.3 343 10.5
2005-09-08 06:47:55 51°18.155 2°51.969 349.2 13.3 343 10.8
2005-09-08 06:48:55 51°18.365 2°51.858 349 13.3 342 11.6
2005-09-08 06:49:56 51°18.577 2°51.748 349 13.3 342 12.8
2005-09-08 06:50:55 51°18.787 2°51.64 349.5 13.4 342 13.9
2005-09-08 06:51:56 51°18.999 2°51.528 349.1 13.2 342 14.7
2005-09-08 06:52:56 51°19.209 2°51.432 351.1 13.1 344 15.3
2005-09-08 06:53:56 51°19.42 2°51.338 351.6 13.2 345 15.1
2005-09-08 06:54:55 51°19.629 2°51.245 351.3 13.3 344 14.7
2005-09-08 06:55:56 51°19.844 2°51.144 351.5 13.4 344 12.3
2005-09-08 06:56:56 51°20.059 2°51.046 351.3 13.5 344 13
2005-09-08 06:57:55 51°20.272 2°50.948 352 13.5 345 14.4
2005-09-08 06:58:56 51°20.489 2°50.849 351.8 13.4 344 15.4
2005-09-08 06:59:55 51°20.7 2°50.75 350.8 13.4 344 19
2005-09-08 07:00:55 51°20.915 2°50.652 351.7 13.5 344 21.9
2005-09-08 07:01:54 51°21.129 2°50.556 351.9 13.6 345 23.2
2005-09-08 07:02:56 51°21.353 2°50.458 351.8 13.6 345 23.4
2005-09-08 07:03:55 51°21.572 2°50.367 351 13.7 345 22.7
2005-09-08 07:04:56 51°21.792 2°50.271 351.6 13.6 345 22.5
2005-09-08 07:05:56 51°22.011 2°50.181 351.5 13.6 346 22.8
2005-09-08 07:06:56 51°22.229 2°50.093 351.5 13.5 346 23.1
2005-09-08 07:07:56 51°22.444 2°49.996 351.4 13.4 345 23.2
2005-09-08 07:08:55 51°22.658 2°49.906 351.6 13.4 345 20.9
2005-09-08 07:09:56 51°22.874 2°49.812 350.2 13.3 345 13.2
2005-09-08 07:10:56 51°23.089 2°49.721 351.6 13.4 345 16.3
2005-09-08 07:11:56 51°23.304 2°49.631 351.5 13.4 345 18.3
2005-09-08 07:12:56 51°23.518 2°49.538 350.6 13.4 344 20.5
2005-09-08 07:13:56 51°23.735 2°49.473 357.2 13.3 351 22.5
2005-09-08 07:14:56 51°23.953 2°49.407 355.9 13.3 349 21.8
2005-09-08 07:15:56 51°24.171 2°49.348 357.2 13.3 351 22.9
2005-09-08 07:16:56 51°24.389 2°49.295 358.3 13.3 351 22.2
2005-09-08 07:17:55 51°24.605 2°49.237 355.4 13.3 347 21.8
2005-09-08 07:18:56 51°24.821 2°49.128 347.7 13.5 342 22.3
2005-09-08 07:19:56 51°25.032 2°49.001 346 13.6 340 22
2005-09-08 07:20:56 51°25.246 2°48.877 345.6 13.7 340 23.8
2005-09-08 07:21:56 51°25.455 2°48.746 346.2 13.4 339 24.4
2005-09-08 07:22:55 51°25.66 2°48.606 344 13.5 338 23.7
2005-09-08 07:23:56 51°25.826 2°48.503 350.5 9 343 23.6
2005-09-08 07:24:55 51°25.952 2°48.436 346.7 7.8 340 23.3
2005-09-08 07:25:56 51°26.024 2°48.409 25.8 2.9 356 23.3
2005-09-08 07:26:56 51°26.025 2°48.381 55.2 1.1 273 6.3
2005-09-08 07:27:56 51°26.026 2°48.355 54.1 0.9 279 -999
2005-09-08 07:28:56 51°26.027 2°48.336 50.9 0.7 277 23.2
2005-09-08 07:29:56 51°26.029 2°48.319 50.1 0.6 285 23.3
2005-09-08 07:30:56 51°26.032 2°48.305 49 0.6 290 23.2
2005-09-08 07:31:56 51°26.048 2°48.314 53.5 2.2 36 22.9
2005-09-08 07:32:55 51°26.044 2°48.382 125.9 3.2 128 22.2
2005-09-08 07:33:55 51°25.989 2°48.442 139.1 4.2 140 23.3
2005-09-08 07:34:56 51°25.976 2°48.476 90.6 0.6 94 23.4
2005-09-08 07:35:56 51°25.98 2°48.491 75.6 0.6 49 23.2
2005-09-08 07:36:55 51°25.987 2°48.499 70.6 0.5 33 23.1
2005-09-08 07:37:55 51°25.994 2°48.504 66.6 0.4 13 23
2005-09-08 07:38:55 51°26.001 2°48.505 63.1 0.4 1 22.9
2005-09-08 07:39:55 51°26.009 2°48.503 59.6 0.5 348 22.8
2005-09-08 07:40:55 51°26.016 2°48.5 56.5 0.4 346 22.9
2005-09-08 07:41:55 51°26.023 2°48.496 55.1 0.5 338 22
2005-09-08 07:42:56 51°26.03 2°48.491 52.7 0.5 332 22.3
2005-09-08 07:43:56 51°26.036 2°48.484 48.7 0.5 325 22.9
2005-09-08 07:44:56 51°26.042 2°48.476 45.7 0.5 319 23
2005-09-08 07:45:56 51°26.048 2°48.467 45.8 0.5 320 23
2005-09-08 07:46:56 51°26.055 2°48.459 44.9 0.5 317 22.9
2005-09-08 07:47:55 51°26.061 2°48.449 44.2 0.5 313 22.9
2005-09-08 07:48:56 51°26.067 2°48.438 43.2 0.5 315 23
2005-09-08 07:49:55 51°26.073 2°48.429 42.7 0.6 313 23.1
2005-09-08 07:50:56 51°26.079 2°48.418 43.2 0.5 309 22.8
2005-09-08 07:51:55 51°26.085 2°48.407 43.4 0.5 313 22.5
2005-09-08 07:52:56 51°26.09 2°48.396 44.7 0.5 312 22
2005-09-08 07:53:56 51°26.096 2°48.386 45.4 0.5 307 20.2
2005-09-08 07:54:55 51°26.101 2°48.375 46.9 0.5 311 20.7
2005-09-08 07:55:56 51°26.106 2°48.364 48.7 0.5 306 21.1
2005-09-08 07:56:55 51°26.111 2°48.353 51.8 0.5 311 21.9
2005-09-08 07:57:55 51°26.116 2°48.344 56.1 0.4 307 22
2005-09-08 07:58:55 51°26.12 2°48.334 59.6 0.5 307 21.9
2005-09-08 07:59:55 51°26.124 2°48.325 66.7 0.4 298 22.3
2005-09-08 08:00:56 51°26.127 2°48.316 76 0.4 302 22.5
2005-09-08 08:01:55 51°26.129 2°48.305 84.1 0.5 292 22.6
2005-09-08 08:02:56 51°26.13 2°48.293 91.1 0.5 275 22.3
2005-09-08 08:03:56 51°26.131 2°48.279 97 0.5 264 22
2005-09-08 08:04:56 51°26.131 2°48.264 103.1 0.6 270 21.9
2005-09-08 08:05:55 51°26.108 2°48.288 140.7 3.3 151 20
2005-09-08 08:06:56 51°26.049 2°48.362 132.3 5.1 137 21.4
2005-09-08 08:07:56 51°25.983 2°48.447 136 4.7 143 23
2005-09-08 08:08:55 51°25.966 2°48.48 88.8 0.2 211 22.9
2005-09-08 08:09:56 51°25.966 2°48.473 68.9 0.3 301 23
2005-09-08 08:10:56 51°25.97 2°48.465 66.2 0.5 306 23
2005-09-08 08:11:56 51°25.973 2°48.456 73 0.4 298 22.9
2005-09-08 08:12:55 51°25.975 2°48.446 82 0.4 281 22.8
2005-09-08 08:13:56 51°25.976 2°48.435 90.4 0.4 270 22.7
2005-09-08 08:14:56 51°25.975 2°48.422 96.5 0.5 267 22.9
2005-09-08 08:15:54 51°25.975 2°48.409 101.7 0.6 259 22.6
2005-09-08 08:16:56 51°25.974 2°48.393 103.7 0.6 263 22.9
2005-09-08 08:17:56 51°25.973 2°48.378 104.5 0.5 265 22.6
2005-09-08 08:18:56 51°25.972 2°48.362 103.7 0.6 265 22.8
2005-09-08 08:19:56 51°25.971 2°48.346 104.1 0.6 265 22.8
2005-09-08 08:20:56 51°25.97 2°48.331 105.3 0.6 271 22.7
2005-09-08 08:21:56 51°25.968 2°48.315 106.8 0.7 258 22.6
2005-09-08 08:22:56 51°25.965 2°48.306 107.3 0.7 125 22.7
2005-09-08 08:23:56 51°25.961 2°48.364 87.8 3 84 22.7
2005-09-08 08:24:56 51°25.988 2°48.449 60.9 4 54 22.7
2005-09-08 08:25:56 51°26.013 2°48.488 63.1 0.5 1 22.5
2005-09-08 08:26:56 51°26.018 2°48.488 78.1 0.2 355 22.7
2005-09-08 08:27:56 51°26.018 2°48.485 87.8 0.2 268 22.6
2005-09-08 08:28:56 51°26.016 2°48.479 96 0.4 235 22.8
2005-09-08 08:29:56 51°26.013 2°48.469 102.3 0.5 246 22.7
2005-09-08 08:30:56 51°26.008 2°48.456 107.2 0.6 245 22.6
2005-09-08 08:31:56 51°26.003 2°48.441 112 0.7 246 22.8
2005-09-08 08:32:56 51°25.998 2°48.425 117 0.7 248 22.7
2005-09-08 08:33:55 51°25.993 2°48.407 120.2 0.7 246 22.7
2005-09-08 08:34:56 51°25.988 2°48.389 123.1 0.8 247 22.6
2005-09-08 08:35:56 51°25.983 2°48.37 125.4 0.8 249 22.8
2005-09-08 08:36:56 51°25.979 2°48.349 127 0.8 250 22.7
2005-09-08 08:37:56 51°25.974 2°48.329 128.8 0.9 250 22.5
2005-09-08 08:38:56 51°25.97 2°48.307 129.5 0.8 253 22.7
2005-09-08 08:39:56 51°25.964 2°48.286 129.1 0.8 256 22.6
2005-09-08 08:40:56 51°25.951 2°48.3 105 2.1 113 22.4
2005-09-08 08:41:56 51°25.958 2°48.387 77.2 3.9 76 22.5
2005-09-08 08:42:56 51°25.997 2°48.482 53.6 4.5 45 22.6
2005-09-08 08:43:56 51°26.023 2°48.501 58.5 0.4 1 21.5
2005-09-08 08:44:56 51°26.029 2°48.506 75.1 0.2 29 22
2005-09-08 08:45:56 51°26.029 2°48.505 83.2 0.1 281 21.9
2005-09-08 08:46:56 51°26.028 2°48.501 90.3 0.3 242 21.6
2005-09-08 08:47:56 51°26.025 2°48.492 97.2 0.4 246 21.9
2005-09-08 08:48:56 51°26.021 2°48.481 103.3 0.5 243 22.7
2005-09-08 08:49:56 51°26.016 2°48.468 108.8 0.6 241 22.7
2005-09-08 08:50:56 51°26.012 2°48.451 112.3 0.6 252 22.6
2005-09-08 08:51:56 51°26.007 2°48.433 115.7 0.7 250 22.8
2005-09-08 08:52:56 51°26.002 2°48.417 119.7 0.8 242 22.9
2005-09-08 08:53:56 51°25.995 2°48.4 124.2 0.8 240 22.7
2005-09-08 08:54:56 51°25.988 2°48.381 128.6 0.8 240 22.5
2005-09-08 08:55:56 51°25.98 2°48.363 133 0.8 240 22.8
2005-09-08 08:56:56 51°25.973 2°48.343 135.7 0.9 240 22.6
2005-09-08 08:57:56 51°25.956 2°48.343 131.3 2.4 142 22.4
2005-09-08 08:58:56 51°25.965 2°48.408 49.3 3.4 31 22.6
2005-09-08 08:59:56 51°26.01 2°48.445 54.6 1.9 32 22.8
2005-09-08 09:00:56 51°26.021 2°48.437 42.3 0.7 331 22.8
2005-09-08 09:01:56 51°26.031 2°48.423 39 0.9 317 22.1
2005-09-08 09:02:56 51°26.041 2°48.407 39 0.8 312 21
2005-09-08 09:03:56 51°26.049 2°48.39 44.3 0.8 303 21.5
2005-09-08 09:04:56 51°26.055 2°48.374 51.2 0.8 297 21.8
2005-09-08 09:05:56 51°26.058 2°48.357 57.4 0.7 289 21.4
2005-09-08 09:06:56 51°26.06 2°48.341 63.5 0.7 281 21
2005-09-08 09:07:56 51°26.06 2°48.325 70 0.6 268 20.8
2005-09-08 09:08:56 51°26.06 2°48.314 75.8 0.5 50 21.7
2005-09-08 09:09:55 51°26.034 2°48.36 135.7 3.9 146 22.6
2005-09-08 09:10:56 51°25.993 2°48.435 102 2.5 106 22.8
2005-09-08 09:11:56 51°25.995 2°48.467 73.3 0.7 64 22.7
2005-09-08 09:12:56 51°26 2°48.475 67.5 0.5 18 22.8
2005-09-08 09:13:56 51°26.005 2°48.476 67 0.2 351 22.8
2005-09-08 09:14:56 51°26.008 2°48.473 70.6 0.2 314 22.5
2005-09-08 09:15:55 51°26.008 2°48.468 76.3 0.3 279 22.7
2005-09-08 09:16:56 51°26.006 2°48.459 84.5 0.4 244 22.8
2005-09-08 09:17:56 51°26.002 2°48.447 91.9 0.6 236 22.6
2005-09-08 09:18:55 51°25.977 2°48.483 128.5 4.8 140 22.8
2005-09-08 09:19:56 51°25.831 2°48.514 177.7 11.1 181 23
2005-09-08 09:20:56 51°25.633 2°48.362 210 14.2 211 22.7
2005-09-08 09:21:56 51°25.43 2°48.166 210.8 14.3 211 26.2
2005-09-08 09:22:56 51°25.234 2°47.949 216.2 14.3 217 27
2005-09-08 09:23:56 51°25.041 2°47.725 216.2 14.4 217 26.7
2005-09-08 09:24:56 51°24.846 2°47.499 216.5 14.3 216 29.7
2005-09-08 09:25:56 51°24.658 2°47.267 219.2 14.5 218 29.9
2005-09-08 09:26:56 51°24.469 2°47.026 219.5 14.6 218 28.2
2005-09-08 09:27:56 51°24.279 2°46.785 219.2 14.6 219 26.4
2005-09-08 09:28:56 51°24.087 2°46.545 216.1 14.6 215 27.5
2005-09-08 09:29:56 51°23.886 2°46.33 213.3 14.6 213 26.9
2005-09-08 09:30:56 51°23.684 2°46.119 213.7 14.6 214 27
2005-09-08 09:31:56 51°23.482 2°45.905 214.2 14.7 214 26
2005-09-08 09:32:56 51°23.279 2°45.69 214.5 14.7 214 24.7
2005-09-08 09:33:56 51°23.076 2°45.475 214.9 14.6 213 25.3
2005-09-08 09:34:56 51°22.871 2°45.26 214.4 14.7 213 24.7
2005-09-08 09:35:56 51°22.662 2°45.051 209 14.6 209 25.9
2005-09-08 09:36:56 51°22.445 2°44.885 205.6 14.5 206 25.3
2005-09-08 09:37:56 51°22.226 2°44.725 203.8 14.5 204 23.1
2005-09-08 09:38:55 51°22.008 2°44.574 203.6 14.5 202 22.7
2005-09-08 09:39:56 51°21.776 2°44.469 197.6 14.3 200 22
2005-09-08 09:40:56 51°21.556 2°44.316 203.2 14.4 204 21
2005-09-08 09:41:56 51°21.338 2°44.165 203.2 14.5 204 20.1
2005-09-08 09:42:56 51°21.119 2°44.004 203.5 14.4 205 22.1
2005-09-08 09:43:56 51°20.9 2°43.845 202.8 14.4 204 23.6
2005-09-08 09:44:56 51°20.682 2°43.681 204.1 14.4 205 24
2005-09-08 09:45:56 51°20.464 2°43.517 203.6 14.6 206 25.9
2005-09-08 09:46:56 51°20.246 2°43.353 203.2 14.6 206 25.5
2005-09-08 09:47:56 51°20.026 2°43.188 202.8 14.5 205 25.4
2005-09-08 09:48:56 51°19.807 2°43.039 199.1 14.4 202 25
2005-09-08 09:49:56 51°19.585 2°42.898 199 14.4 202 24.3
2005-09-08 09:50:56 51°19.363 2°42.76 199.4 14.3 201 23
2005-09-08 09:51:56 51°19.142 2°42.618 199.8 14.3 202 23
2005-09-08 09:52:56 51°18.922 2°42.477 198.8 14.3 201 22.8
2005-09-08 09:53:56 51°18.7 2°42.336 199 14.3 202 22.6
2005-09-08 09:54:56 51°18.479 2°42.194 199.4 14.3 202 22.8
2005-09-08 09:55:56 51°18.256 2°42.053 199.1 14.4 202 22.8
2005-09-08 09:56:56 51°18.034 2°41.91 199.6 14.4 202 23
2005-09-08 09:57:56 51°17.814 2°41.768 199.1 14.4 202 23.1
2005-09-08 09:58:56 51°17.596 2°41.593 205.7 14.5 208 23
2005-09-08 09:59:56 51°17.381 2°41.418 205.1 14.5 207 23
2005-09-08 10:00:56 51°17.166 2°41.245 204 14.5 207 22.8
2005-09-08 10:01:56 51°16.949 2°41.07 203.9 14.7 207 22.4
2005-09-08 10:02:56 51°16.728 2°40.919 199.4 14.5 202 22
2005-09-08 10:03:56 51°16.499 2°40.778 199.5 14.6 201 20.9
2005-09-08 10:04:56 51°16.275 2°40.638 199 14.6 201 19.2
2005-09-08 10:05:56 51°16.048 2°40.501 198.6 14.4 201 18.8
2005-09-08 10:06:56 51°15.826 2°40.367 199.4 14.4 200 17.6
2005-09-08 10:07:56 51°15.601 2°40.233 199.5 14.5 201 16.3
2005-09-08 10:08:56 51°15.376 2°40.096 199.1 14.4 200 15.3
2005-09-08 10:09:56 51°15.15 2°39.958 199.4 14.4 201 13.8
2005-09-08 10:10:56 51°14.927 2°39.824 199.1 14.2 200 13.4
2005-09-08 10:11:56 51°14.707 2°39.691 200.3 14.2 201 13.8
2005-09-08 10:12:56 51°14.49 2°39.537 202.6 14.2 204 13.4
2005-09-08 10:13:56 51°14.274 2°39.387 202.2 14.1 204 12.2
2005-09-08 10:14:56 51°14.06 2°39.236 202.1 14.3 204 12.7
2005-09-08 10:15:56 51°13.843 2°39.079 202.5 14.3 204 13.5
2005-09-08 10:16:56 51°13.625 2°38.92 202.2 14.2 204 13.7
2005-09-08 10:17:56 51°13.411 2°38.76 202.5 14.3 206 12.8
2005-09-08 10:18:56 51°13.194 2°38.599 202.6 14.4 205 13.5
2005-09-08 10:19:56 51°12.974 2°38.439 201.9 14.4 204 13
2005-09-08 10:20:56 51°12.754 2°38.28 201.8 14.4 204 12.3
2005-09-08 10:21:56 51°12.536 2°38.119 205 14.5 207 12.2
2005-09-08 10:22:56 51°12.317 2°37.966 196.8 14.4 198 12.3
2005-09-08 10:23:56 51°12.087 2°37.858 194.8 14.4 197 12.8
2005-09-08 10:24:56 51°11.865 2°37.72 201.8 14.4 203 13
2005-09-08 10:25:56 51°11.644 2°37.572 201.7 14.4 203 13.3
2005-09-08 10:26:56 51°11.424 2°37.421 203.9 14.4 204 12.9
2005-09-08 10:27:56 51°11.206 2°37.26 204.6 14.3 204 12.1
2005-09-08 10:28:56 51°10.989 2°37.1 205.4 14.3 206 11
2005-09-08 10:29:56 51°10.778 2°36.939 207.6 14.2 207 9.3
2005-09-08 10:30:56 51°10.569 2°36.769 209.7 13.9 208 8.2
2005-09-08 10:31:56 51°10.365 2°36.588 206.4 14.3 205 10.3
2005-09-08 10:32:56 51°10.141 2°36.537 171.1 13.4 169 17.2
2005-09-08 10:33:56 51°9.928 2°36.642 157.6 13.5 162 17.2
2005-09-08 10:34:56 51°9.716 2°36.761 156 13.4 160 16
2005-09-08 10:35:56 51°9.507 2°36.879 156.9 13.3 161 15.3
2005-09-08 10:36:56 51°9.313 2°36.984 156.4 11 162 12.7
2005-09-08 10:37:56 51°9.189 2°37.074 142.9 7 147 10.7
2005-09-08 10:38:56 51°9.127 2°37.17 117.8 4.7 126 9.8
2005-09-08 10:39:56 51°9.105 2°37.225 91.1 0.7 173 9.6
2005-09-08 10:40:55 51°9.096 2°37.223 80 0.6 205 9.6
2005-09-08 10:41:56 51°9.088 2°37.217 69.5 0.5 205 9.5
2005-09-08 10:42:56 51°9.083 2°37.21 57.9 0.4 216 9.5
2005-09-08 10:43:56 51°9.078 2°37.203 56.6 0.3 225 9.5
2005-09-08 10:44:56 51°9.074 2°37.196 57 0.3 234 9.5
2005-09-08 10:45:56 51°9.071 2°37.19 54.6 0.3 234 9.4
2005-09-08 10:46:56 51°9.069 2°37.185 53.7 0.1 238 9.4
2005-09-08 10:47:56 51°9.068 2°37.182 53.7 0.1 263 9.4
2005-09-08 10:48:56 51°9.067 2°37.181 55 0.1 222 9.4
2005-09-08 10:49:56 51°9.066 2°37.18 56.1 0.1 196 9.4
2005-09-08 10:50:56 51°9.065 2°37.179 56.6 -999 181 9.4
2005-09-08 10:51:56 51°9.064 2°37.18 56.5 0.1 147 9.4
2005-09-08 10:52:56 51°9.064 2°37.18 53.3 -999 296 9.4
2005-09-08 10:53:56 51°9.064 2°37.18 51.6 -999 277 9.4
2005-09-08 10:54:56 51°9.065 2°37.179 53.3 -999 92 9.4
2005-09-08 10:55:56 51°9.065 2°37.179 54.3 0.1 340 9.5
2005-09-08 10:56:56 51°9.065 2°37.179 52.1 0.1 8 9.5
2005-09-08 10:57:56 51°9.066 2°37.179 51.4 0.1 343 9.5
2005-09-08 10:58:56 51°9.067 2°37.179 51.7 0.1 67 9.5
2005-09-08 10:59:56 51°9.068 2°37.18 51.2 0.1 354 9.6
2005-09-08 11:00:56 51°9.069 2°37.181 52.6 0.1 19 9.5
2005-09-08 11:01:56 51°9.071 2°37.183 54.2 0.2 40 9.6
2005-09-08 11:02:56 51°9.071 2°37.184 53.8 -999 353 9.6
2005-09-08 11:03:56 51°9.072 2°37.186 53.9 0.1 45 9.6
2005-09-08 11:04:56 51°9.073 2°37.19 54.6 0.1 74 9.7
2005-09-08 11:05:56 51°9.074 2°37.191 54.7 0.1 96 9.6
2005-09-08 11:06:56 51°9.075 2°37.194 53.3 0.1 41 9.6
2005-09-08 11:07:56 51°9.076 2°37.196 51.7 0.1 18 9.6
2005-09-08 11:08:56 51°9.077 2°37.197 51.4 0.1 359 9.7
2005-09-08 11:09:56 51°9.078 2°37.199 52.9 0.1 42 9.7
2005-09-08 11:10:56 51°9.079 2°37.202 55 0.2 23 9.7
2005-09-08 11:11:56 51°9.079 2°37.205 57.3 0.1 100 9.8
2005-09-08 11:12:56 51°9.079 2°37.209 57.7 0.2 105 9.7
2005-09-08 11:13:56 51°9.079 2°37.213 56.4 0.1 82 9.8
2005-09-08 11:14:56 51°9.079 2°37.217 56 0.1 97 9.7
2005-09-08 11:15:56 51°9.08 2°37.221 56.2 0.1 101 9.8
2005-09-08 11:16:56 51°9.081 2°37.225 56.2 0.1 80 9.8
2005-09-08 11:17:56 51°9.081 2°37.23 56.4 0.2 116 9.8
2005-09-08 11:18:56 51°9.081 2°37.235 56.6 0.2 109 9.8
2005-09-08 11:19:56 51°9.081 2°37.236 55.8 0.2 88 9.8
2005-09-08 11:20:56 51°9.081 2°37.241 55.3 0.1 73 9.9
2005-09-08 11:21:56 51°9.081 2°37.243 55.5 0.2 97 9.8
2005-09-08 11:22:56 51°9.081 2°37.246 56.2 0.1 125 9.8
2005-09-08 11:23:56 51°9.079 2°37.247 56.6 0.1 126 9.9
2005-09-08 11:24:56 51°9.078 2°37.25 55.9 -999 144 9.9
2005-09-08 11:25:56 51°9.077 2°37.251 54.7 0.1 283 9.9
2005-09-08 11:26:56 51°9.076 2°37.251 53.6 0.1 154 9.9
2005-09-08 11:27:56 51°9.075 2°37.252 52.8 -999 279 9.9
2005-09-08 11:28:56 51°9.075 2°37.252 52 0.1 211 9.9
2005-09-08 11:29:56 51°9.074 2°37.252 51.4 -999 243 9.9
2005-09-08 11:30:56 51°9.073 2°37.252 51.2 -999 163 9.9
2005-09-08 11:31:56 51°9.072 2°37.252 50.1 0.1 139 9.9
2005-09-08 11:32:56 51°9.072 2°37.252 49.2 0.1 211 9.9
2005-09-08 11:33:56 51°9.072 2°37.251 47.9 0.1 180 9.9
2005-09-08 11:34:56 51°9.071 2°37.251 46.4 0.1 291 10
2005-09-08 11:35:56 51°9.072 2°37.25 45.9 0.1 309 10
2005-09-08 11:36:56 51°9.071 2°37.25 46.4 0.1 196 10
2005-09-08 11:37:56 51°9.071 2°37.249 46.1 -999 209 10
2005-09-08 11:38:56 51°9.071 2°37.249 45.5 0.1 295 10
2005-09-08 11:39:56 51°9.071 2°37.249 45.3 0.1 164 10
2005-09-08 11:40:56 51°9.072 2°37.25 46.3 0.1 144 10
2005-09-08 11:41:56 51°9.072 2°37.251 46.9 0.1 341 10.1
2005-09-08 11:42:56 51°9.072 2°37.251 47.3 0.1 117 10.1
2005-09-08 11:43:56 51°9.071 2°37.254 48.1 0.1 73 10.1
2005-09-08 11:44:56 51°9.071 2°37.256 47.9 0.1 74 10.1
2005-09-08 11:45:56 51°9.071 2°37.259 48.1 0.2 101 10.1
2005-09-08 11:46:56 51°9.073 2°37.264 47.6 0.7 49 10.1
2005-09-08 11:47:56 51°9.123 2°37.365 56.1 8.8 54 10.3
2005-09-08 11:48:56 51°9.227 2°37.622 64.8 12.4 61 10.6
2005-09-08 11:49:56 51°9.321 2°37.917 65.7 12.5 64 10.8
2005-09-08 11:50:56 51°9.417 2°38.213 65.6 12.6 62 11
2005-09-08 11:51:56 51°9.513 2°38.509 66.3 12.6 63 11.1
2005-09-08 11:52:56 51°9.592 2°38.816 70.8 12.6 68 11
2005-09-08 11:53:56 51°9.673 2°39.124 70.1 12.6 67 10.9
2005-09-08 11:54:56 51°9.754 2°39.435 70.4 12.6 67 10.7
2005-09-08 11:55:56 51°9.836 2°39.742 70.3 12.6 67 10.7
2005-09-08 11:56:56 51°9.919 2°40.045 69.6 12.5 67 10.8
2005-09-08 11:57:56 51°10.001 2°40.354 71 12.5 68 10.7
2005-09-08 11:58:56 51°10.082 2°40.659 70.9 12.5 68 10.8
2005-09-08 11:59:56 51°10.163 2°40.961 69.5 12.5 66 10.8
2005-09-08 12:00:56 51°10.245 2°41.267 70.1 12.6 67 10.6
2005-09-08 12:01:56 51°10.329 2°41.579 69.5 12.8 66 10.7
2005-09-08 12:02:56 51°10.414 2°41.891 70.1 12.8 67 10.7
2005-09-08 12:03:56 51°10.497 2°42.2 71 12.8 67 10.7
2005-09-08 12:04:56 51°10.582 2°42.513 70.3 12.8 66 10.8
2005-09-08 12:05:56 51°10.669 2°42.821 69.5 12.8 65 11
2005-09-08 12:06:56 51°10.754 2°43.13 70 12.7 66 11.1
2005-09-08 12:07:56 51°10.839 2°43.436 70.4 12.7 66 11.3
2005-09-08 12:08:56 51°10.925 2°43.746 70.4 12.7 66 11.5
2005-09-08 12:09:56 51°11.01 2°44.051 71.1 12.7 67 11.6
2005-09-08 12:10:56 51°11.095 2°44.361 71.1 12.7 66 11.8
2005-09-08 12:11:56 51°11.166 2°44.673 75.9 12.6 69 11.8
2005-09-08 12:12:56 51°11.258 2°44.976 67.9 12.6 63 11.9
2005-09-08 12:13:56 51°11.349 2°45.273 68.8 12.5 65 12.1
2005-09-08 12:14:56 51°11.439 2°45.569 68 12.5 64 12.4
2005-09-08 12:15:56 51°11.526 2°45.87 71 12.5 68 12.5
2005-09-08 12:16:56 51°11.607 2°46.175 70.8 12.5 66 12.5
2005-09-08 12:17:56 51°11.688 2°46.48 70.6 12.5 67 12.5
2005-09-08 12:18:56 51°11.769 2°46.787 71.1 12.6 67 12.3
2005-09-08 12:19:56 51°11.853 2°47.095 69.7 12.6 66 12.2
2005-09-08 12:20:56 51°11.939 2°47.399 69.9 12.5 66 12.2
2005-09-08 12:21:56 51°12.026 2°47.702 69.2 12.7 66 12.2
2005-09-08 12:22:56 51°12.115 2°48.006 68.9 12.7 65 12.1
2005-09-08 12:23:56 51°12.201 2°48.31 69.6 12.6 66 11.9
2005-09-08 12:24:56 51°12.294 2°48.607 64 12.5 59 11.8
2005-09-08 12:25:56 51°12.402 2°48.892 63 12.5 59 11.8
2005-09-08 12:26:56 51°12.511 2°49.179 62.9 12.6 59 11.8
2005-09-08 12:27:56 51°12.617 2°49.468 64.1 12.7 61 11.8
2005-09-08 12:28:56 51°12.722 2°49.76 63.8 12.7 60 11.7
2005-09-08 12:29:56 51°12.825 2°50.052 63.8 12.6 60 11.7
2005-09-08 12:30:56 51°12.93 2°50.347 63.5 12.8 60 11.7
2005-09-08 12:31:56 51°13.035 2°50.644 64.2 12.9 61 11.6
2005-09-08 12:32:56 51°13.141 2°50.945 64.5 12.9 61 11.5
2005-09-08 12:33:56 51°13.245 2°51.242 64.5 12.9 61 11.4
2005-09-08 12:34:56 51°13.351 2°51.539 61.2 13 57 11.3
2005-09-08 12:35:56 51°13.47 2°51.827 60.4 13 57 11.4
2005-09-08 12:36:56 51°13.59 2°52.118 59.3 13 56 11.4
2005-09-08 12:37:56 51°13.709 2°52.409 60.2 13.1 57 11.3
2005-09-08 12:38:56 51°13.825 2°52.698 60.5 13 57 11.2
2005-09-08 12:39:56 51°13.944 2°52.989 60.2 13.1 57 11.2
2005-09-08 12:40:56 51°14.061 2°53.281 60.8 13.2 57 10.8
2005-09-08 12:41:56 51°14.178 2°53.573 60.9 13 58 10.7
2005-09-08 12:42:56 51°14.29 2°53.873 63.7 13.1 61 10.6
2005-09-08 12:43:56 51°14.379 2°54.191 72.7 13.1 71 10.6
2005-09-08 12:44:56 51°14.425 2°54.518 85.2 12.3 84 11.2
2005-09-08 12:45:56 51°14.408 2°54.843 101.6 12.3 100 11.3
2005-09-08 12:46:56 51°14.356 2°55.125 116 10.7 112 11.1
2005-09-08 12:47:56 51°14.254 2°55.316 142.7 9.1 143 11.9
2005-09-08 12:48:56 51°14.124 2°55.429 157.9 9 154 11.1
2005-09-08 12:49:56 51°13.989 2°55.524 158.4 8.8 157 12
2005-09-08 12:50:56 51°13.873 2°55.604 159.5 6.8 158 11
2005-09-08 12:51:56 51°13.779 2°55.678 150 5.9 145 11.2
2005-09-08 12:52:56 51°13.717 2°55.787 129.7 5.4 127 14.4
2005-09-08 12:53:56 51°13.679 2°55.895 115.1 3.9 113 10.1
2005-09-08 12:54:56 51°13.664 2°55.957 120.6 0.7 110 8.9
2005-09-08 12:55:56 51°13.662 2°55.96 123.3 -999 63 8.8
2005-09-08 12:56:56 51°13.662 2°55.96 130.2 0.1 20 8.8
2005-09-08 12:57:56 51°13.662 2°55.959 131 -999 70 8.8
2005-09-08 12:58:57 51°13.662 2°55.959 129.6 -999 49 -999
2005-09-08 12:59:57 51°13.663 2°55.959 129.9 -999 63 -999
2005-09-08 13:00:57 51°13.662 2°55.959 129.7 -999 88 -999
2005-09-08 13:01:57 51°13.663 2°55.959 129.7 -999 78 -999
2005-09-08 13:02:57 51°13.663 2°55.959 129.8 -999 57 -999
2005-09-08 13:03:57 51°13.662 2°55.958 129.7 -999 70 -999
2005-09-08 13:04:57 51°13.663 2°55.959 129.6 -999 192 -999
2005-09-08 13:05:54 51°13.663 2°55.959 129.4 -999 116 -999
2005-09-08 13:38:34 51°13.663 2°55.96 128.5 -999 -999 -999
2005-09-08 13:39:45 51°13.662 2°55.958 128.5 -999 144 -999
2005-09-08 13:40:45 51°13.663 2°55.958 128.5 -999 42 -999
2005-09-08 13:41:45 51°13.664 2°55.959 128.5 -999 67 -999
2005-09-08 13:42:45 51°13.663 2°55.958 128.5 -999 69 -999
2005-09-08 13:43:45 51°13.662 2°55.959 128.5 -999 216 -999
2005-09-08 13:44:45 51°13.663 2°55.96 128.5 -999 208 -999
2005-09-08 13:45:45 51°13.662 2°55.96 128.5 0.1 249 -999
2005-09-08 13:46:45 51°13.662 2°55.96 128.5 -999 36 -999
2005-09-08 13:47:48 51°13.662 2°55.959 128.5 -999 -999 -999
2005-09-08 13:49:00 51°13.662 2°55.962 128.5 -999 261 -999
2005-09-08 13:49:59 51°13.663 2°55.959 128.5 0.1 39 -999
2005-09-08 13:51:00 51°13.663 2°55.96 128.5 -999 64 -999
2005-09-08 13:52:00 51°13.663 2°55.96 128.5 -999 340 -999